sensor_id;sensor_type;location;lat;lon;timestamp;P1;durP1;ratioP1;P2;durP2;ratioP2
79585;SDS011;69054;50.866;4.636;2023-07-28T00:00:53;4.95;;;3.05;;
79585;SDS011;69054;50.866;4.636;2023-07-28T00:03:19;5.90;;;3.25;;
79585;SDS011;69054;50.866;4.636;2023-07-28T00:05:44;6.05;;;3.45;;
79585;SDS011;69054;50.866;4.636;2023-07-28T00:08:10;6.45;;;3.00;;
79585;SDS011;69054;50.866;4.636;2023-07-28T00:10:39;7.07;;;3.58;;
79585;SDS011;69054;50.866;4.636;2023-07-28T00:13:06;5.45;;;2.88;;
79585;SDS011;69054;50.866;4.636;2023-07-28T00:15:31;5.03;;;2.67;;
79585;SDS011;69054;50.866;4.636;2023-07-28T00:17:57;5.13;;;3.13;;
79585;SDS011;69054;50.866;4.636;2023-07-28T00:20:24;6.90;;;3.20;;
79585;SDS011;69054;50.866;4.636;2023-07-28T00:22:50;5.25;;;3.15;;
79585;SDS011;69054;50.866;4.636;2023-07-28T00:25:15;5.35;;;3.40;;
79585;SDS011;69054;50.866;4.636;2023-07-28T00:27:41;6.10;;;3.47;;
79585;SDS011;69054;50.866;4.636;2023-07-28T00:30:06;5.78;;;3.35;;
79585;SDS011;69054;50.866;4.636;2023-07-28T00:32:32;5.47;;;3.35;;
79585;SDS011;69054;50.866;4.636;2023-07-28T00:34:57;5.03;;;3.38;;
79585;SDS011;69054;50.866;4.636;2023-07-28T00:37:23;7.32;;;3.50;;
79585;SDS011;69054;50.866;4.636;2023-07-28T00:39:48;8.10;;;3.22;;
79585;SDS011;69054;50.866;4.636;2023-07-28T00:42:13;6.88;;;3.28;;
79585;SDS011;69054;50.866;4.636;2023-07-28T00:44:39;7.45;;;3.60;;
79585;SDS011;69054;50.866;4.636;2023-07-28T00:47:04;4.70;;;2.78;;
79585;SDS011;69054;50.866;4.636;2023-07-28T00:49:30;7.20;;;3.40;;
79585;SDS011;69054;50.866;4.636;2023-07-28T00:51:56;7.53;;;3.50;;
79585;SDS011;69054;50.866;4.636;2023-07-28T00:54:22;7.35;;;3.00;;
79585;SDS011;69054;50.866;4.636;2023-07-28T00:56:48;5.75;;;3.53;;
79585;SDS011;69054;50.866;4.636;2023-07-28T00:59:14;7.70;;;3.65;;
79585;SDS011;69054;50.866;4.636;2023-07-28T01:01:40;7.82;;;3.53;;
79585;SDS011;69054;50.866;4.636;2023-07-28T01:04:05;5.72;;;3.72;;
79585;SDS011;69054;50.866;4.636;2023-07-28T01:07:13;6.60;;;3.30;;
79585;SDS011;69054;50.866;4.636;2023-07-28T01:09:24;5.80;;;3.40;;
79585;SDS011;69054;50.866;4.636;2023-07-28T01:11:59;8.18;;;3.38;;
79585;SDS011;69054;50.866;4.636;2023-07-28T01:14:26;6.55;;;3.47;;
79585;SDS011;69054;50.866;4.636;2023-07-28T01:16:51;5.57;;;3.20;;
79585;SDS011;69054;50.866;4.636;2023-07-28T01:19:17;6.88;;;3.47;;
79585;SDS011;69054;50.866;4.636;2023-07-28T01:21:45;5.60;;;3.40;;
79585;SDS011;69054;50.866;4.636;2023-07-28T01:24:28;5.72;;;3.30;;
79585;SDS011;69054;50.866;4.636;2023-07-28T01:27:02;5.82;;;3.85;;
79585;SDS011;69054;50.866;4.636;2023-07-28T01:29:28;5.78;;;2.50;;
79585;SDS011;69054;50.866;4.636;2023-07-28T01:31:54;5.60;;;3.42;;
79585;SDS011;69054;50.866;4.636;2023-07-28T01:34:19;8.07;;;4.10;;
79585;SDS011;69054;50.866;4.636;2023-07-28T01:36:45;8.77;;;4.15;;
79585;SDS011;69054;50.866;4.636;2023-07-28T01:39:10;7.30;;;3.42;;
79585;SDS011;69054;50.866;4.636;2023-07-28T01:41:35;10.00;;;3.97;;
79585;SDS011;69054;50.866;4.636;2023-07-28T01:44:01;8.00;;;4.05;;
79585;SDS011;69054;50.866;4.636;2023-07-28T01:46:27;7.60;;;4.25;;
79585;SDS011;69054;50.866;4.636;2023-07-28T01:48:52;7.25;;;4.05;;
79585;SDS011;69054;50.866;4.636;2023-07-28T01:51:18;8.20;;;3.97;;
79585;SDS011;69054;50.866;4.636;2023-07-28T01:53:43;6.28;;;3.65;;
79585;SDS011;69054;50.866;4.636;2023-07-28T01:56:09;8.15;;;3.97;;
79585;SDS011;69054;50.866;4.636;2023-07-28T01:58:34;7.40;;;4.15;;
79585;SDS011;69054;50.866;4.636;2023-07-28T02:00:59;9.52;;;4.45;;
79585;SDS011;69054;50.866;4.636;2023-07-28T02:03:25;8.55;;;4.20;;
79585;SDS011;69054;50.866;4.636;2023-07-28T02:05:50;7.93;;;4.07;;
79585;SDS011;69054;50.866;4.636;2023-07-28T02:08:15;8.55;;;3.78;;
79585;SDS011;69054;50.866;4.636;2023-07-28T02:10:41;6.90;;;3.65;;
79585;SDS011;69054;50.866;4.636;2023-07-28T02:13:08;8.43;;;4.07;;
79585;SDS011;69054;50.866;4.636;2023-07-28T02:15:33;10.25;;;4.68;;
79585;SDS011;69054;50.866;4.636;2023-07-28T02:17:59;11.07;;;4.50;;
79585;SDS011;69054;50.866;4.636;2023-07-28T02:20:24;9.00;;;4.20;;
79585;SDS011;69054;50.866;4.636;2023-07-28T02:22:49;8.85;;;4.25;;
79585;SDS011;69054;50.866;4.636;2023-07-28T02:25:15;10.00;;;4.65;;
79585;SDS011;69054;50.866;4.636;2023-07-28T02:27:40;10.45;;;4.18;;
79585;SDS011;69054;50.866;4.636;2023-07-28T02:30:06;11.35;;;5.03;;
79585;SDS011;69054;50.866;4.636;2023-07-28T02:32:31;8.73;;;4.35;;
79585;SDS011;69054;50.866;4.636;2023-07-28T02:34:57;9.23;;;4.55;;
79585;SDS011;69054;50.866;4.636;2023-07-28T02:37:24;11.23;;;4.90;;
79585;SDS011;69054;50.866;4.636;2023-07-28T02:39:49;11.40;;;6.20;;
79585;SDS011;69054;50.866;4.636;2023-07-28T02:42:15;11.88;;;5.20;;
79585;SDS011;69054;50.866;4.636;2023-07-28T02:44:41;10.95;;;5.03;;
79585;SDS011;69054;50.866;4.636;2023-07-28T02:47:06;9.85;;;5.15;;
79585;SDS011;69054;50.866;4.636;2023-07-28T02:49:32;10.80;;;4.78;;
79585;SDS011;69054;50.866;4.636;2023-07-28T02:51:57;10.70;;;4.97;;
79585;SDS011;69054;50.866;4.636;2023-07-28T02:54:23;11.15;;;4.97;;
79585;SDS011;69054;50.866;4.636;2023-07-28T02:56:50;11.98;;;5.55;;
79585;SDS011;69054;50.866;4.636;2023-07-28T02:59:19;9.18;;;4.32;;
79585;SDS011;69054;50.866;4.636;2023-07-28T03:01:44;10.32;;;5.00;;
79585;SDS011;69054;50.866;4.636;2023-07-28T03:04:09;8.48;;;4.63;;
79585;SDS011;69054;50.866;4.636;2023-07-28T03:06:35;8.25;;;4.15;;
79585;SDS011;69054;50.866;4.636;2023-07-28T03:09:00;10.60;;;4.70;;
79585;SDS011;69054;50.866;4.636;2023-07-28T03:11:26;10.77;;;5.03;;
79585;SDS011;69054;50.866;4.636;2023-07-28T03:13:51;10.23;;;4.45;;
79585;SDS011;69054;50.866;4.636;2023-07-28T03:16:16;10.57;;;4.90;;
79585;SDS011;69054;50.866;4.636;2023-07-28T03:18:42;8.05;;;4.47;;
79585;SDS011;69054;50.866;4.636;2023-07-28T03:21:08;8.30;;;4.20;;
79585;SDS011;69054;50.866;4.636;2023-07-28T03:23:34;9.32;;;4.90;;
79585;SDS011;69054;50.866;4.636;2023-07-28T03:25:59;9.68;;;4.68;;
79585;SDS011;69054;50.866;4.636;2023-07-28T03:28:25;9.90;;;4.60;;
79585;SDS011;69054;50.866;4.636;2023-07-28T03:30:50;8.10;;;3.90;;
79585;SDS011;69054;50.866;4.636;2023-07-28T03:33:16;7.45;;;4.25;;
79585;SDS011;69054;50.866;4.636;2023-07-28T03:35:41;9.57;;;4.38;;
79585;SDS011;69054;50.866;4.636;2023-07-28T03:38:06;11.30;;;4.60;;
79585;SDS011;69054;50.866;4.636;2023-07-28T03:40:32;9.20;;;4.20;;
79585;SDS011;69054;50.866;4.636;2023-07-28T03:42:57;8.05;;;3.78;;
79585;SDS011;69054;50.866;4.636;2023-07-28T03:45:22;6.05;;;3.70;;
79585;SDS011;69054;50.866;4.636;2023-07-28T03:47:48;8.73;;;3.75;;
79585;SDS011;69054;50.866;4.636;2023-07-28T03:50:13;8.32;;;4.00;;
79585;SDS011;69054;50.866;4.636;2023-07-28T03:52:39;8.98;;;4.15;;
79585;SDS011;69054;50.866;4.636;2023-07-28T03:55:04;9.68;;;4.15;;
79585;SDS011;69054;50.866;4.636;2023-07-28T03:57:30;8.85;;;3.95;;
79585;SDS011;69054;50.866;4.636;2023-07-28T03:59:55;11.15;;;5.32;;
79585;SDS011;69054;50.866;4.636;2023-07-28T04:02:20;8.07;;;3.95;;
79585;SDS011;69054;50.866;4.636;2023-07-28T04:04:46;8.90;;;3.72;;
79585;SDS011;69054;50.866;4.636;2023-07-28T04:07:11;7.43;;;4.38;;
79585;SDS011;69054;50.866;4.636;2023-07-28T04:09:36;9.13;;;3.88;;
79585;SDS011;69054;50.866;4.636;2023-07-28T04:12:02;6.55;;;3.40;;
79585;SDS011;69054;50.866;4.636;2023-07-28T04:14:27;7.15;;;3.75;;
79585;SDS011;69054;50.866;4.636;2023-07-28T04:16:53;7.00;;;3.67;;
79585;SDS011;69054;50.866;4.636;2023-07-28T04:19:18;6.40;;;3.80;;
79585;SDS011;69054;50.866;4.636;2023-07-28T04:21:44;7.05;;;3.40;;
79585;SDS011;69054;50.866;4.636;2023-07-28T04:24:10;6.95;;;3.80;;
79585;SDS011;69054;50.866;4.636;2023-07-28T04:26:36;6.90;;;3.33;;
79585;SDS011;69054;50.866;4.636;2023-07-28T04:29:02;11.15;;;3.78;;
79585;SDS011;69054;50.866;4.636;2023-07-28T04:31:28;10.02;;;3.70;;
79585;SDS011;69054;50.866;4.636;2023-07-28T04:33:53;8.05;;;3.20;;
79585;SDS011;69054;50.866;4.636;2023-07-28T04:36:19;7.20;;;3.05;;
79585;SDS011;69054;50.866;4.636;2023-07-28T04:38:44;6.00;;;3.35;;
79585;SDS011;69054;50.866;4.636;2023-07-28T04:41:09;6.03;;;2.97;;
79585;SDS011;69054;50.866;4.636;2023-07-28T04:43:35;6.38;;;3.33;;
79585;SDS011;69054;50.866;4.636;2023-07-28T04:46:00;5.85;;;2.85;;
79585;SDS011;69054;50.866;4.636;2023-07-28T04:48:26;5.88;;;3.15;;
79585;SDS011;69054;50.866;4.636;2023-07-28T04:50:52;5.13;;;3.15;;
79585;SDS011;69054;50.866;4.636;2023-07-28T04:53:17;4.57;;;2.90;;
79585;SDS011;69054;50.866;4.636;2023-07-28T04:55:42;4.80;;;3.10;;
79585;SDS011;69054;50.866;4.636;2023-07-28T04:58:08;6.03;;;3.20;;
79585;SDS011;69054;50.866;4.636;2023-07-28T05:00:33;5.53;;;3.30;;
79585;SDS011;69054;50.866;4.636;2023-07-28T05:02:58;6.07;;;3.13;;
79585;SDS011;69054;50.866;4.636;2023-07-28T05:05:24;5.07;;;2.80;;
79585;SDS011;69054;50.866;4.636;2023-07-28T05:07:49;5.75;;;3.20;;
79585;SDS011;69054;50.866;4.636;2023-07-28T05:10:14;5.70;;;3.17;;
79585;SDS011;69054;50.866;4.636;2023-07-28T05:12:40;7.13;;;3.50;;
79585;SDS011;69054;50.866;4.636;2023-07-28T05:15:05;5.90;;;2.97;;
79585;SDS011;69054;50.866;4.636;2023-07-28T05:17:35;4.65;;;2.97;;
79585;SDS011;69054;50.866;4.636;2023-07-28T05:20:01;4.93;;;2.70;;
79585;SDS011;69054;50.866;4.636;2023-07-28T05:22:26;5.72;;;3.10;;
79585;SDS011;69054;50.866;4.636;2023-07-28T05:24:52;4.70;;;2.65;;
79585;SDS011;69054;50.866;4.636;2023-07-28T05:27:17;4.70;;;2.95;;
79585;SDS011;69054;50.866;4.636;2023-07-28T05:29:42;6.40;;;2.70;;
79585;SDS011;69054;50.866;4.636;2023-07-28T05:32:08;4.50;;;2.35;;
79585;SDS011;69054;50.866;4.636;2023-07-28T05:34:33;6.22;;;3.25;;
79585;SDS011;69054;50.866;4.636;2023-07-28T05:36:59;4.20;;;2.53;;
79585;SDS011;69054;50.866;4.636;2023-07-28T05:39:24;4.13;;;2.40;;
79585;SDS011;69054;50.866;4.636;2023-07-28T05:41:49;11.77;;;3.13;;
79585;SDS011;69054;50.866;4.636;2023-07-28T05:44:15;4.03;;;2.50;;
79585;SDS011;69054;50.866;4.636;2023-07-28T05:46:40;6.68;;;3.97;;
79585;SDS011;69054;50.866;4.636;2023-07-28T05:49:05;6.45;;;3.50;;
79585;SDS011;69054;50.866;4.636;2023-07-28T05:51:31;4.43;;;3.20;;
79585;SDS011;69054;50.866;4.636;2023-07-28T05:53:56;5.28;;;3.20;;
79585;SDS011;69054;50.866;4.636;2023-07-28T05:56:22;5.25;;;3.35;;
79585;SDS011;69054;50.866;4.636;2023-07-28T05:58:47;5.95;;;3.58;;
79585;SDS011;69054;50.866;4.636;2023-07-28T06:01:13;7.22;;;3.65;;
79585;SDS011;69054;50.866;4.636;2023-07-28T06:03:39;5.72;;;3.30;;
79585;SDS011;69054;50.866;4.636;2023-07-28T06:06:04;5.65;;;3.72;;
79585;SDS011;69054;50.866;4.636;2023-07-28T06:08:30;5.25;;;3.42;;
79585;SDS011;69054;50.866;4.636;2023-07-28T06:10:55;5.20;;;3.30;;
79585;SDS011;69054;50.866;4.636;2023-07-28T06:13:20;5.70;;;3.92;;
79585;SDS011;69054;50.866;4.636;2023-07-28T06:15:46;4.65;;;3.10;;
79585;SDS011;69054;50.866;4.636;2023-07-28T06:18:11;5.38;;;2.83;;
79585;SDS011;69054;50.866;4.636;2023-07-28T06:20:37;7.32;;;2.67;;
79585;SDS011;69054;50.866;4.636;2023-07-28T06:23:02;3.35;;;2.33;;
79585;SDS011;69054;50.866;4.636;2023-07-28T06:25:27;4.88;;;2.67;;
79585;SDS011;69054;50.866;4.636;2023-07-28T06:27:53;3.75;;;2.20;;
79585;SDS011;69054;50.866;4.636;2023-07-28T06:30:18;4.47;;;2.55;;
79585;SDS011;69054;50.866;4.636;2023-07-28T06:32:43;4.93;;;2.00;;
79585;SDS011;69054;50.866;4.636;2023-07-28T06:35:09;3.95;;;2.00;;
79585;SDS011;69054;50.866;4.636;2023-07-28T06:37:35;2.83;;;1.88;;
79585;SDS011;69054;50.866;4.636;2023-07-28T06:40:03;3.92;;;2.05;;
79585;SDS011;69054;50.866;4.636;2023-07-28T06:42:32;2.70;;;1.80;;
79585;SDS011;69054;50.866;4.636;2023-07-28T06:44:58;3.47;;;2.00;;
79585;SDS011;69054;50.866;4.636;2023-07-28T06:47:23;3.03;;;2.20;;
79585;SDS011;69054;50.866;4.636;2023-07-28T06:49:48;3.67;;;2.15;;
79585;SDS011;69054;50.866;4.636;2023-07-28T06:52:14;2.97;;;2.10;;
79585;SDS011;69054;50.866;4.636;2023-07-28T06:54:39;5.68;;;2.50;;
79585;SDS011;69054;50.866;4.636;2023-07-28T06:57:05;4.20;;;2.53;;
79585;SDS011;69054;50.866;4.636;2023-07-28T06:59:31;5.18;;;2.03;;
79585;SDS011;69054;50.866;4.636;2023-07-28T07:01:57;3.53;;;2.25;;
79585;SDS011;69054;50.866;4.636;2023-07-28T07:04:22;5.03;;;2.15;;
79585;SDS011;69054;50.866;4.636;2023-07-28T07:06:47;4.40;;;2.28;;
79585;SDS011;69054;50.866;4.636;2023-07-28T07:09:13;4.63;;;2.33;;
79585;SDS011;69054;50.866;4.636;2023-07-28T07:11:41;4.10;;;2.33;;
79585;SDS011;69054;50.866;4.636;2023-07-28T07:14:07;3.38;;;2.38;;
79585;SDS011;69054;50.866;4.636;2023-07-28T07:16:33;6.10;;;2.95;;
79585;SDS011;69054;50.866;4.636;2023-07-28T07:18:59;5.13;;;3.80;;
79585;SDS011;69054;50.866;4.636;2023-07-28T07:21:24;4.00;;;2.72;;
79585;SDS011;69054;50.866;4.636;2023-07-28T07:23:49;4.68;;;2.70;;
79585;SDS011;69054;50.866;4.636;2023-07-28T07:26:15;4.70;;;3.22;;
79585;SDS011;69054;50.866;4.636;2023-07-28T07:28:40;4.07;;;3.00;;
79585;SDS011;69054;50.866;4.636;2023-07-28T07:31:12;4.03;;;2.50;;
79585;SDS011;69054;50.866;4.636;2023-07-28T07:33:38;2.78;;;1.67;;
79585;SDS011;69054;50.866;4.636;2023-07-28T07:36:04;3.17;;;1.73;;
79585;SDS011;69054;50.866;4.636;2023-07-28T07:38:30;3.65;;;1.50;;
79585;SDS011;69054;50.866;4.636;2023-07-28T07:40:55;2.28;;;1.42;;
79585;SDS011;69054;50.866;4.636;2023-07-28T07:43:20;2.92;;;1.65;;
79585;SDS011;69054;50.866;4.636;2023-07-28T07:45:46;3.03;;;1.77;;
79585;SDS011;69054;50.866;4.636;2023-07-28T07:48:16;1.80;;;1.20;;
79585;SDS011;69054;50.866;4.636;2023-07-28T07:50:41;2.10;;;1.10;;
79585;SDS011;69054;50.866;4.636;2023-07-28T07:53:07;1.92;;;1.13;;
79585;SDS011;69054;50.866;4.636;2023-07-28T07:55:32;2.80;;;1.45;;
79585;SDS011;69054;50.866;4.636;2023-07-28T07:57:57;2.33;;;1.20;;
79585;SDS011;69054;50.866;4.636;2023-07-28T08:00:23;2.10;;;1.15;;
79585;SDS011;69054;50.866;4.636;2023-07-28T08:02:51;2.22;;;1.38;;
79585;SDS011;69054;50.866;4.636;2023-07-28T08:05:16;2.53;;;1.42;;
79585;SDS011;69054;50.866;4.636;2023-07-28T08:07:42;2.60;;;1.65;;
79585;SDS011;69054;50.866;4.636;2023-07-28T08:10:07;3.00;;;1.30;;
79585;SDS011;69054;50.866;4.636;2023-07-28T08:12:33;2.83;;;1.60;;
79585;SDS011;69054;50.866;4.636;2023-07-28T08:14:59;2.63;;;1.30;;
79585;SDS011;69054;50.866;4.636;2023-07-28T08:17:24;2.65;;;1.38;;
79585;SDS011;69054;50.866;4.636;2023-07-28T08:19:50;3.25;;;1.40;;
79585;SDS011;69054;50.866;4.636;2023-07-28T08:22:15;2.88;;;1.70;;
79585;SDS011;69054;50.866;4.636;2023-07-28T08:24:40;3.30;;;1.70;;
79585;SDS011;69054;50.866;4.636;2023-07-28T08:27:06;3.13;;;2.10;;
79585;SDS011;69054;50.866;4.636;2023-07-28T08:29:31;3.72;;;2.08;;
79585;SDS011;69054;50.866;4.636;2023-07-28T08:31:56;3.53;;;2.35;;
79585;SDS011;69054;50.866;4.636;2023-07-28T08:34:22;4.88;;;2.65;;
79585;SDS011;69054;50.866;4.636;2023-07-28T08:36:47;4.60;;;2.75;;
79585;SDS011;69054;50.866;4.636;2023-07-28T08:39:13;2.83;;;1.85;;
79585;SDS011;69054;50.866;4.636;2023-07-28T08:41:40;3.63;;;2.05;;
79585;SDS011;69054;50.866;4.636;2023-07-28T08:44:06;3.22;;;2.00;;
79585;SDS011;69054;50.866;4.636;2023-07-28T08:46:32;3.60;;;1.90;;
79585;SDS011;69054;50.866;4.636;2023-07-28T08:48:59;2.42;;;1.58;;
79585;SDS011;69054;50.866;4.636;2023-07-28T08:51:25;3.67;;;1.60;;
79585;SDS011;69054;50.866;4.636;2023-07-28T08:53:50;2.53;;;1.50;;
79585;SDS011;69054;50.866;4.636;2023-07-28T08:56:15;2.55;;;1.55;;
79585;SDS011;69054;50.866;4.636;2023-07-28T08:58:41;2.10;;;1.40;;
79585;SDS011;69054;50.866;4.636;2023-07-28T09:01:06;3.03;;;1.73;;
79585;SDS011;69054;50.866;4.636;2023-07-28T09:03:31;2.42;;;1.50;;
79585;SDS011;69054;50.866;4.636;2023-07-28T09:06:02;3.00;;;1.40;;
79585;SDS011;69054;50.866;4.636;2023-07-28T09:08:31;2.88;;;1.70;;
79585;SDS011;69054;50.866;4.636;2023-07-28T09:10:57;2.20;;;1.50;;
79585;SDS011;69054;50.866;4.636;2023-07-28T09:13:32;3.22;;;1.75;;
79585;SDS011;69054;50.866;4.636;2023-07-28T09:16:00;2.88;;;1.60;;
79585;SDS011;69054;50.866;4.636;2023-07-28T09:18:26;3.42;;;1.80;;
79585;SDS011;69054;50.866;4.636;2023-07-28T09:20:52;2.38;;;1.60;;
79585;SDS011;69054;50.866;4.636;2023-07-28T09:23:18;2.00;;;1.00;;
79585;SDS011;69054;50.866;4.636;2023-07-28T09:25:58;2.60;;;1.60;;
79585;SDS011;69054;50.866;4.636;2023-07-28T09:28:38;3.45;;;1.30;;
79585;SDS011;69054;50.866;4.636;2023-07-28T09:31:07;2.05;;;1.30;;
79585;SDS011;69054;50.866;4.636;2023-07-28T09:33:33;2.30;;;1.30;;
79585;SDS011;69054;50.866;4.636;2023-07-28T09:36:13;2.95;;;1.60;;
79585;SDS011;69054;50.866;4.636;2023-07-28T09:38:42;2.30;;;1.40;;
79585;SDS011;69054;50.866;4.636;2023-07-28T09:41:08;2.30;;;1.45;;
79585;SDS011;69054;50.866;4.636;2023-07-28T09:43:36;1.95;;;1.20;;
79585;SDS011;69054;50.866;4.636;2023-07-28T09:46:06;2.50;;;1.70;;
79585;SDS011;69054;50.866;4.636;2023-07-28T09:48:33;2.80;;;1.73;;
79585;SDS011;69054;50.866;4.636;2023-07-28T09:51:11;2.92;;;1.90;;
79585;SDS011;69054;50.866;4.636;2023-07-28T09:53:44;2.78;;;1.83;;
79585;SDS011;69054;50.866;4.636;2023-07-28T09:56:16;2.90;;;1.80;;
79585;SDS011;69054;50.866;4.636;2023-07-28T09:58:51;3.08;;;2.10;;
79585;SDS011;69054;50.866;4.636;2023-07-28T10:01:17;3.05;;;2.08;;
79585;SDS011;69054;50.866;4.636;2023-07-28T10:03:44;2.85;;;1.90;;
79585;SDS011;69054;50.866;4.636;2023-07-28T10:06:10;4.18;;;2.22;;
79585;SDS011;69054;50.866;4.636;2023-07-28T10:08:36;2.35;;;1.65;;
79585;SDS011;69054;50.866;4.636;2023-07-28T10:11:03;2.90;;;1.45;;
79585;SDS011;69054;50.866;4.636;2023-07-28T10:13:32;3.58;;;1.80;;
79585;SDS011;69054;50.866;4.636;2023-07-28T10:16:06;2.45;;;1.75;;
79585;SDS011;69054;50.866;4.636;2023-07-28T10:18:34;3.28;;;2.10;;
79585;SDS011;69054;50.866;4.636;2023-07-28T10:21:06;2.63;;;1.83;;
79585;SDS011;69054;50.866;4.636;2023-07-28T10:23:34;2.30;;;1.45;;
79585;SDS011;69054;50.866;4.636;2023-07-28T10:26:03;4.88;;;1.85;;
79585;SDS011;69054;50.866;4.636;2023-07-28T10:28:38;3.45;;;1.85;;
79585;SDS011;69054;50.866;4.636;2023-07-28T10:31:07;4.00;;;2.15;;
79585;SDS011;69054;50.866;4.636;2023-07-28T10:33:40;3.08;;;1.67;;
79585;SDS011;69054;50.866;4.636;2023-07-28T10:36:13;2.47;;;1.67;;
79585;SDS011;69054;50.866;4.636;2023-07-28T10:38:40;2.40;;;1.70;;
79585;SDS011;69054;50.866;4.636;2023-07-28T10:41:09;2.65;;;1.63;;
79585;SDS011;69054;50.866;4.636;2023-07-28T10:43:36;2.20;;;1.58;;
79585;SDS011;69054;50.866;4.636;2023-07-28T10:46:03;3.00;;;1.52;;
79585;SDS011;69054;50.866;4.636;2023-07-28T10:48:29;2.83;;;1.52;;
79585;SDS011;69054;50.866;4.636;2023-07-28T10:50:55;3.75;;;1.60;;
79585;SDS011;69054;50.866;4.636;2023-07-28T10:53:20;2.60;;;1.45;;
79585;SDS011;69054;50.866;4.636;2023-07-28T10:55:46;2.97;;;1.60;;
79585;SDS011;69054;50.866;4.636;2023-07-28T10:58:11;3.15;;;1.48;;
79585;SDS011;69054;50.866;4.636;2023-07-28T11:00:37;2.22;;;1.55;;
79585;SDS011;69054;50.866;4.636;2023-07-28T11:03:02;2.97;;;1.80;;
79585;SDS011;69054;50.866;4.636;2023-07-28T11:05:28;3.15;;;1.85;;
79585;SDS011;69054;50.866;4.636;2023-07-28T11:07:56;2.60;;;2.00;;
79585;SDS011;69054;50.866;4.636;2023-07-28T11:10:22;2.85;;;1.75;;
79585;SDS011;69054;50.866;4.636;2023-07-28T11:12:49;2.78;;;1.70;;
79585;SDS011;69054;50.866;4.636;2023-07-28T11:15:17;4.47;;;1.95;;
79585;SDS011;69054;50.866;4.636;2023-07-28T11:17:44;3.28;;;1.95;;
79585;SDS011;69054;50.866;4.636;2023-07-28T11:20:24;3.80;;;2.08;;
79585;SDS011;69054;50.866;4.636;2023-07-28T11:25:31;4.57;;;2.35;;
79585;SDS011;69054;50.866;4.636;2023-07-28T11:27:57;2.88;;;2.17;;
79585;SDS011;69054;50.866;4.636;2023-07-28T11:30:26;3.92;;;3.00;;
79585;SDS011;69054;50.866;4.636;2023-07-28T11:32:52;4.35;;;2.45;;
79585;SDS011;69054;50.866;4.636;2023-07-28T11:35:19;4.38;;;2.53;;
79585;SDS011;69054;50.866;4.636;2023-07-28T11:37:46;4.03;;;2.58;;
79585;SDS011;69054;50.866;4.636;2023-07-28T11:40:14;3.80;;;2.55;;
79585;SDS011;69054;50.866;4.636;2023-07-28T11:42:43;3.53;;;2.75;;
79585;SDS011;69054;50.866;4.636;2023-07-28T11:45:10;3.90;;;2.72;;
79585;SDS011;69054;50.866;4.636;2023-07-28T11:47:37;4.18;;;3.10;;
79585;SDS011;69054;50.866;4.636;2023-07-28T11:50:02;3.83;;;2.92;;
79585;SDS011;69054;50.866;4.636;2023-07-28T11:52:36;3.00;;;2.47;;
79585;SDS011;69054;50.866;4.636;2023-07-28T11:55:04;3.22;;;2.58;;
79585;SDS011;69054;50.866;4.636;2023-07-28T11:57:31;3.55;;;2.35;;
79585;SDS011;69054;50.866;4.636;2023-07-28T11:59:58;4.32;;;3.05;;
79585;SDS011;69054;50.866;4.636;2023-07-28T12:02:27;2.80;;;2.03;;
79585;SDS011;69054;50.866;4.636;2023-07-28T12:04:54;4.43;;;2.25;;
79585;SDS011;69054;50.866;4.636;2023-07-28T12:07:28;3.45;;;2.30;;
79585;SDS011;69054;50.866;4.636;2023-07-28T12:09:55;3.65;;;2.30;;
79585;SDS011;69054;50.866;4.636;2023-07-28T12:12:24;6.72;;;2.65;;
79585;SDS011;69054;50.866;4.636;2023-07-28T12:14:52;3.50;;;2.67;;
79585;SDS011;69054;50.866;4.636;2023-07-28T12:17:18;3.55;;;2.22;;
79585;SDS011;69054;50.866;4.636;2023-07-28T12:22:35;3.38;;;2.40;;
79585;SDS011;69054;50.866;4.636;2023-07-28T12:25:01;3.28;;;2.38;;
79585;SDS011;69054;50.866;4.636;2023-07-28T12:27:27;3.67;;;2.72;;
79585;SDS011;69054;50.866;4.636;2023-07-28T12:29:52;3.90;;;2.78;;
79585;SDS011;69054;50.866;4.636;2023-07-28T12:32:18;3.67;;;2.40;;
79585;SDS011;69054;50.866;4.636;2023-07-28T12:34:44;4.47;;;2.78;;
79585;SDS011;69054;50.866;4.636;2023-07-28T12:37:09;3.75;;;2.70;;
79585;SDS011;69054;50.866;4.636;2023-07-28T12:39:38;3.33;;;2.58;;
79585;SDS011;69054;50.866;4.636;2023-07-28T12:42:04;3.28;;;2.67;;
79585;SDS011;69054;50.866;4.636;2023-07-28T12:44:31;3.50;;;2.60;;
79585;SDS011;69054;50.866;4.636;2023-07-28T12:46:57;4.18;;;3.05;;
79585;SDS011;69054;50.866;4.636;2023-07-28T12:49:22;3.97;;;2.70;;
79585;SDS011;69054;50.866;4.636;2023-07-28T12:51:47;4.63;;;2.65;;
79585;SDS011;69054;50.866;4.636;2023-07-28T12:54:13;4.20;;;2.33;;
79585;SDS011;69054;50.866;4.636;2023-07-28T12:56:38;3.10;;;2.38;;
79585;SDS011;69054;50.866;4.636;2023-07-28T12:59:03;2.90;;;2.13;;
79585;SDS011;69054;50.866;4.636;2023-07-28T13:01:29;3.72;;;2.40;;
79585;SDS011;69054;50.866;4.636;2023-07-28T13:03:54;3.55;;;2.10;;
79585;SDS011;69054;50.866;4.636;2023-07-28T13:06:20;3.80;;;2.10;;
79585;SDS011;69054;50.866;4.636;2023-07-28T13:08:46;3.78;;;2.30;;
79585;SDS011;69054;50.866;4.636;2023-07-28T13:11:11;2.72;;;1.73;;
79585;SDS011;69054;50.866;4.636;2023-07-28T13:13:39;20.60;;;19.02;;
79585;SDS011;69054;50.866;4.636;2023-07-28T13:16:04;3.05;;;2.20;;
79585;SDS011;69054;50.866;4.636;2023-07-28T13:18:30;4.05;;;2.10;;
79585;SDS011;69054;50.866;4.636;2023-07-28T13:20:57;2.30;;;1.70;;
79585;SDS011;69054;50.866;4.636;2023-07-28T13:23:23;3.97;;;2.00;;
79585;SDS011;69054;50.866;4.636;2023-07-28T13:25:49;2.97;;;2.00;;
79585;SDS011;69054;50.866;4.636;2023-07-28T13:28:14;3.22;;;2.13;;
79585;SDS011;69054;50.866;4.636;2023-07-28T13:30:40;4.38;;;1.83;;
79585;SDS011;69054;50.866;4.636;2023-07-28T13:33:05;2.58;;;1.88;;
79585;SDS011;69054;50.866;4.636;2023-07-28T13:35:31;2.97;;;1.90;;
79585;SDS011;69054;50.866;4.636;2023-07-28T13:37:57;2.78;;;2.00;;
79585;SDS011;69054;50.866;4.636;2023-07-28T13:40:22;4.78;;;2.45;;
79585;SDS011;69054;50.866;4.636;2023-07-28T13:42:48;3.60;;;2.25;;
79585;SDS011;69054;50.866;4.636;2023-07-28T13:45:13;3.42;;;2.13;;
79585;SDS011;69054;50.866;4.636;2023-07-28T13:47:39;2.53;;;1.77;;
79585;SDS011;69054;50.866;4.636;2023-07-28T13:50:04;6.38;;;2.40;;
79585;SDS011;69054;50.866;4.636;2023-07-28T13:52:31;3.13;;;2.00;;
79585;SDS011;69054;50.866;4.636;2023-07-28T13:54:56;4.47;;;1.90;;
79585;SDS011;69054;50.866;4.636;2023-07-28T13:57:22;3.33;;;1.80;;
79585;SDS011;69054;50.866;4.636;2023-07-28T13:59:47;2.80;;;2.00;;
79585;SDS011;69054;50.866;4.636;2023-07-28T14:02:13;2.95;;;1.70;;
79585;SDS011;69054;50.866;4.636;2023-07-28T14:04:38;3.20;;;1.80;;
79585;SDS011;69054;50.866;4.636;2023-07-28T14:07:04;3.67;;;1.73;;
79585;SDS011;69054;50.866;4.636;2023-07-28T14:09:29;2.65;;;1.58;;
79585;SDS011;69054;50.866;4.636;2023-07-28T14:11:54;4.43;;;2.55;;
79585;SDS011;69054;50.866;4.636;2023-07-28T14:14:20;3.15;;;2.00;;
79585;SDS011;69054;50.866;4.636;2023-07-28T14:16:45;3.03;;;1.85;;
79585;SDS011;69054;50.866;4.636;2023-07-28T14:19:10;3.17;;;2.08;;
79585;SDS011;69054;50.866;4.636;2023-07-28T14:21:36;3.90;;;1.90;;
79585;SDS011;69054;50.866;4.636;2023-07-28T14:24:03;2.50;;;1.70;;
79585;SDS011;69054;50.866;4.636;2023-07-28T14:26:31;2.63;;;1.90;;
79585;SDS011;69054;50.866;4.636;2023-07-28T14:28:57;2.60;;;1.60;;
79585;SDS011;69054;50.866;4.636;2023-07-28T14:31:22;2.47;;;1.67;;
79585;SDS011;69054;50.866;4.636;2023-07-28T14:33:48;3.08;;;1.70;;
79585;SDS011;69054;50.866;4.636;2023-07-28T14:36:13;4.20;;;1.67;;
79585;SDS011;69054;50.866;4.636;2023-07-28T14:38:38;3.60;;;1.63;;
79585;SDS011;69054;50.866;4.636;2023-07-28T14:41:04;2.83;;;1.67;;
79585;SDS011;69054;50.866;4.636;2023-07-28T14:43:29;3.05;;;1.60;;
79585;SDS011;69054;50.866;4.636;2023-07-28T14:45:54;2.67;;;1.90;;